Terminal Aerodrome Forecast
Issued by NWS Jackson, KY

Home | Current Version | Previous Version | Text Only | Print | Product List | Glossary On
Versions: 1 2 3 4 5 6 7 8 9 10 11 12 13 14 15 16 17
122
FTUS43 KJKL 252325
TAFLOZ
TAF
KLOZ 252325Z 2600/2624 00000KT P6SM VCTS SCT030CB BKN250
     FM260500 00000KT 5SM BR FEW030 SCT250
     FM261100 00000KT 2SM BR SCT015 BKN250
     FM261400 VRB03KT P6SM SCT015 BKN250
     FM261500 23004KT P6SM VCTS SCT020CB BKN250=

USA.gov is the U.S. government's official web portal to all federal, state and local government web resources and services.